Time;durP1;ratioP1;P1;durP2;ratioP2;P2;SDS_P1;SDS_P2;PMS_P1;PMS_P2;Temp;Humidity;BMP_temperature;BMP_pressure;BME280_temperature;BME280_humidity;BME280_pressure;Samples;Min_cycle;Max_cycle;Signal;HPM_P1;HPM_P2
2021/03/07 00:01:08;;;;;;;3.85;2.78;;;5.60;71.80;;;;;;4978354;28;20039;-83
2021/03/07 00:03:34;;;;;;;3.75;2.58;;;5.60;71.90;;;;;;4960202;28;20482;-83
2021/03/07 00:06:00;;;;;;;3.47;2.70;;;5.60;71.80;;;;;;4965894;28;20034;-83
2021/03/07 00:08:25;;;;;;;3.03;2.47;;;5.50;71.80;;;;;;4974376;28;20041;-83
2021/03/07 00:10:51;;;;;;;3.28;2.30;;;5.50;71.80;;;;;;4989397;28;20049;-84
2021/03/07 00:13:17;;;;;;;3.40;2.40;;;5.50;71.80;;;;;;4967102;28;20046;-83
2021/03/07 00:15:43;;;;;;;3.97;2.67;;;5.50;71.80;;;;;;4995960;28;20046;-83
2021/03/07 00:18:08;;;;;;;4.50;2.90;;;5.50;71.80;;;;;;4979567;28;20030;-83
2021/03/07 00:20:34;;;;;;;4.53;2.70;;;5.40;71.80;;;;;;4992359;28;20050;-83
2021/03/07 00:23:00;;;;;;;3.58;2.83;;;5.50;71.80;;;;;;4982955;28;20506;-82
2021/03/07 00:25:26;;;;;;;3.55;2.70;;;5.40;71.80;;;;;;4975171;28;20379;-83
2021/03/07 00:27:52;;;;;;;3.63;2.80;;;5.40;71.80;;;;;;4979424;28;20423;-83
2021/03/07 00:30:18;;;;;;;4.45;2.92;;;5.30;71.80;;;;;;4979945;28;20042;-83
2021/03/07 00:32:45;;;;;;;3.78;2.75;;;5.30;71.80;;;;;;4994739;28;20125;-83
2021/03/07 00:35:11;;;;;;;3.67;2.95;;;5.30;71.80;;;;;;4979390;28;20037;-83
2021/03/07 00:37:38;;;;;;;4.40;2.70;;;5.30;71.80;;;;;;4979492;28;20614;-83
2021/03/07 00:40:08;;;;;;;2.85;2.35;;;5.20;71.80;;;;;;4977930;28;20506;-83
2021/03/07 00:42:35;;;;;;;3.30;2.67;;;5.20;71.80;;;;;;4978841;28;20022;-83
2021/03/07 00:45:01;;;;;;;3.00;2.35;;;5.20;71.80;;;;;;4979142;28;20411;-83
2021/03/07 00:47:27;;;;;;;4.00;2.55;;;5.20;71.80;;;;;;4953577;28;20085;-83
2021/03/07 00:49:53;;;;;;;3.85;2.60;;;5.20;71.80;;;;;;4958425;28;20027;-83
2021/03/07 00:52:19;;;;;;;3.33;2.72;;;5.20;71.80;;;;;;4994838;28;20038;-83
2021/03/07 00:54:44;;;;;;;3.65;2.58;;;5.10;71.80;;;;;;4961785;28;20041;-83
2021/03/07 00:57:10;;;;;;;2.92;2.47;;;5.10;71.80;;;;;;4978828;28;20467;-82
2021/03/07 00:59:36;;;;;;;3.42;2.80;;;5.10;71.80;;;;;;4962753;28;20109;-83
2021/03/07 01:02:02;;;;;;;4.40;2.80;;;5.10;71.80;;;;;;4941833;28;20077;-83
2021/03/07 01:04:27;;;;;;;3.13;2.22;;;5.00;71.70;;;;;;4966331;28;20311;-83
2021/03/07 01:06:53;;;;;;;4.07;2.63;;;5.00;71.80;;;;;;4978487;28;20042;-82
2021/03/07 01:09:19;;;;;;;4.03;2.78;;;5.00;71.80;;;;;;4994710;28;20027;-83
2021/03/07 01:11:44;;;;;;;3.33;2.67;;;5.00;71.90;;;;;;4977885;28;20050;-83
2021/03/07 01:14:10;;;;;;;3.95;2.88;;;4.90;71.80;;;;;;4964145;28;20027;-83
2021/03/07 01:16:37;;;;;;;4.78;3.00;;;4.90;71.80;;;;;;4991470;28;20038;-82
2021/03/07 01:19:03;;;;;;;3.40;2.50;;;4.90;71.80;;;;;;4990286;28;20054;-82
2021/03/07 01:21:29;;;;;;;3.10;2.65;;;4.90;71.90;;;;;;4984112;28;20054;-83
2021/03/07 01:23:55;;;;;;;3.38;2.50;;;4.80;71.80;;;;;;4976567;28;20116;-83
2021/03/07 01:26:21;;;;;;;4.45;2.75;;;4.80;71.80;;;;;;4944172;28;20034;-83
2021/03/07 01:28:46;;;;;;;2.75;2.20;;;4.80;71.80;;;;;;4990225;28;20041;-83
2021/03/07 01:31:12;;;;;;;4.70;3.25;;;4.80;71.80;;;;;;4959233;28;20034;-83
2021/03/07 01:33:38;;;;;;;3.60;2.67;;;4.80;71.80;;;;;;4990363;28;20038;-83
2021/03/07 01:36:04;;;;;;;3.08;2.40;;;4.70;71.80;;;;;;4975349;28;20034;-82
2021/03/07 01:38:30;;;;;;;3.75;2.58;;;4.70;71.80;;;;;;4984809;28;20114;-83
2021/03/07 01:40:57;;;;;;;4.63;2.80;;;4.70;71.90;;;;;;4994190;28;20038;-83
2021/03/07 01:43:23;;;;;;;3.92;2.95;;;4.70;71.90;;;;;;4976877;28;20023;-82
2021/03/07 01:45:50;;;;;;;3.13;2.40;;;4.70;71.90;;;;;;4986497;28;20037;-82
2021/03/07 01:48:17;;;;;;;2.83;2.45;;;4.60;71.90;;;;;;4993878;28;20026;-82
2021/03/07 01:50:48;;;;;;;3.88;2.90;;;4.60;71.90;;;;;;4977451;28;20039;-82
2021/03/07 01:53:16;;;;;;;3.47;2.22;;;4.60;71.90;;;;;;4976100;28;20521;-82
2021/03/07 01:55:42;;;;;;;3.50;2.67;;;4.60;71.90;;;;;;4960915;28;20064;-82
2021/03/07 01:58:35;;;;;;;3.28;2.40;;;4.60;72.00;;;;;;4994746;28;20034;-83
2021/03/07 02:01:01;;;;;;;3.30;2.63;;;4.50;72.00;;;;;;4967416;28;20038;-82
2021/03/07 02:03:27;;;;;;;3.08;2.45;;;4.50;71.90;;;;;;4947875;28;20027;-82
2021/03/07 02:05:53;;;;;;;4.00;2.70;;;4.50;71.90;;;;;;4993265;28;20030;-82
2021/03/07 02:08:19;;;;;;;3.97;2.63;;;4.50;72.00;;;;;;4974303;28;20493;-83
2021/03/07 02:10:54;;;;;;;3.72;2.63;;;4.40;71.90;;;;;;4989675;28;20034;-82
2021/03/07 02:13:31;;;;;;;;;;;4.40;72.00;;;;;;4964347;28;20146;-83
2021/03/07 02:16:03;;;;;;;3.55;2.30;;;4.40;72.00;;;;;;4980461;28;19910;-84
2021/03/07 02:18:31;;;;;;;3.20;2.40;;;4.40;71.80;;;;;;4993220;28;20034;-82
2021/03/07 02:21:10;;;;;;;3.38;2.58;;;4.30;71.90;;;;;;4964326;28;20085;-83
2021/03/07 02:23:47;;;;;;;3.15;2.70;;;4.30;72.10;;;;;;4986943;28;20026;-83
2021/03/07 02:26:14;;;;;;;4.05;2.53;;;4.30;72.10;;;;;;4974764;28;20030;-82
2021/03/07 02:28:39;;;;;;;3.47;2.80;;;4.30;72.10;;;;;;4942321;28;20506;-83
2021/03/07 02:31:05;;;;;;;4.65;3.08;;;4.30;72.10;;;;;;4956157;28;20117;-82
2021/03/07 02:33:38;;;;;;;3.35;2.47;;;4.20;72.00;;;;;;4960862;28;20023;-82
2021/03/07 02:36:16;;;;;;;3.25;2.80;;;4.20;72.10;;;;;;4993636;28;20030;-82
2021/03/07 02:38:44;;;;;;;4.50;3.00;;;4.20;72.00;;;;;;4973839;28;20357;-82
2021/03/07 02:41:12;;;;;;;4.70;2.88;;;4.20;72.00;;;;;;4986982;28;20041;-82
2021/03/07 02:43:41;;;;;;;5.60;3.40;;;4.10;72.00;;;;;;4992911;28;20426;-82
2021/03/07 02:46:11;;;;;;;4.03;2.70;;;4.10;72.00;;;;;;4993561;28;20030;-82
2021/03/07 02:48:37;;;;;;;4.30;3.25;;;4.10;72.00;;;;;;4971173;28;20038;-82
2021/03/07 02:51:06;;;;;;;3.90;2.92;;;4.10;72.00;;;;;;4968583;28;20158;-82
2021/03/07 02:53:33;;;;;;;3.58;2.72;;;4.10;72.00;;;;;;4976561;28;20104;-82
2021/03/07 02:56:03;;;;;;;4.40;3.20;;;4.10;72.00;;;;;;4992284;28;20142;-82
2021/03/07 02:58:31;;;;;;;4.20;2.95;;;4.10;72.00;;;;;;4989176;28;20038;-82
2021/03/07 03:01:00;;;;;;;4.00;2.40;;;4.00;72.00;;;;;;5002884;28;20038;-82
2021/03/07 03:03:33;;;;;;;4.22;3.08;;;4.00;72.00;;;;;;5000553;28;20029;-82
2021/03/07 03:05:59;;;;;;;4.35;2.80;;;4.00;72.10;;;;;;4993409;28;20058;-82
2021/03/07 03:08:27;;;;;;;3.72;2.63;;;4.00;72.00;;;;;;4959971;28;20129;-82
2021/03/07 03:10:54;;;;;;;3.35;2.63;;;3.90;71.90;;;;;;4976805;28;20081;-82
2021/03/07 03:13:21;;;;;;;3.35;2.75;;;3.90;72.00;;;;;;4992953;28;20505;-82
2021/03/07 03:15:47;;;;;;;3.88;2.88;;;3.90;72.00;;;;;;4987180;28;20073;-82
2021/03/07 03:18:15;;;;;;;5.13;3.00;;;3.90;72.00;;;;;;4984688;28;20035;-81
2021/03/07 03:20:42;;;;;;;4.30;3.20;;;3.90;72.00;;;;;;4988314;28;20037;-82
2021/03/07 03:23:08;;;;;;;3.72;2.78;;;3.90;72.00;;;;;;4972467;28;20675;-83
2021/03/07 03:25:34;;;;;;;9.00;3.13;;;3.80;72.00;;;;;;4975970;28;20038;-82
2021/03/07 03:28:00;;;;;;;3.70;2.70;;;3.80;72.00;;;;;;4975813;28;20037;-82
2021/03/07 03:30:27;;;;;;;3.15;2.45;;;3.80;72.00;;;;;;4992723;28;20472;-81
2021/03/07 03:32:53;;;;;;;4.13;3.28;;;3.80;72.00;;;;;;4990064;28;20035;-82
2021/03/07 03:35:20;;;;;;;3.83;3.00;;;3.80;72.00;;;;;;4959819;28;20034;-81
2021/03/07 03:37:48;;;;;;;4.00;2.95;;;3.70;72.00;;;;;;4991520;28;20030;-82
2021/03/07 03:40:20;;;;;;;4.60;3.20;;;3.70;72.00;;;;;;4975824;28;20038;-81
2021/03/07 03:42:51;;;;;;;5.10;3.10;;;3.70;72.00;;;;;;4991920;28;20034;-82
2021/03/07 03:45:18;;;;;;;4.18;3.13;;;3.70;72.00;;;;;;4975747;28;20030;-81
2021/03/07 03:47:49;;;;;;;5.05;3.08;;;3.70;72.00;;;;;;4984995;28;20031;-81
2021/03/07 03:50:15;;;;;;;3.75;2.55;;;3.60;72.00;;;;;;4986911;28;20038;-81
2021/03/07 03:52:43;;;;;;;4.82;3.17;;;3.60;72.00;;;;;;4956702;28;20050;-82
2021/03/07 03:55:16;;;;;;;4.70;3.20;;;3.60;72.00;;;;;;4975817;28;20042;-81
2021/03/07 03:57:45;;;;;;;3.97;2.80;;;3.60;72.00;;;;;;4987068;28;20452;-81
2021/03/07 04:00:19;;;;;;;4.47;2.80;;;3.60;72.00;;;;;;4991348;28;20133;-82
2021/03/07 04:02:46;;;;;;;4.25;3.08;;;3.50;72.00;;;;;;4988493;28;20376;-81
2021/03/07 04:05:17;;;;;;;4.07;3.03;;;3.50;72.00;;;;;;4991396;28;20018;-81
2021/03/07 04:07:47;;;;;;;3.35;2.35;;;3.50;72.00;;;;;;4991756;28;20077;-82
2021/03/07 04:10:18;;;;;;;3.72;2.92;;;3.50;72.00;;;;;;4982044;28;20033;-81
2021/03/07 04:12:46;;;;;;;4.57;2.92;;;3.50;72.00;;;;;;4987036;28;20047;-82
2021/03/07 04:15:13;;;;;;;5.18;3.05;;;3.50;72.00;;;;;;4988315;28;20505;-82
2021/03/07 04:17:41;;;;;;;3.45;2.90;;;3.50;72.10;;;;;;4959542;28;20066;-81
2021/03/07 04:20:08;;;;;;;5.13;3.08;;;3.40;72.00;;;;;;4971736;28;20062;-82
2021/03/07 04:22:34;;;;;;;3.95;2.88;;;3.40;72.00;;;;;;4972848;28;20121;-82
2021/03/07 04:25:00;;;;;;;4.57;3.22;;;3.40;72.00;;;;;;4991091;28;20117;-82
2021/03/07 04:27:26;;;;;;;4.38;3.03;;;3.40;72.10;;;;;;4975183;28;20475;-82
2021/03/07 04:29:52;;;;;;;4.43;3.38;;;3.40;72.10;;;;;;4959587;28;20030;-82
2021/03/07 04:32:18;;;;;;;3.85;2.90;;;3.40;72.10;;;;;;4981693;28;20034;-82
2021/03/07 04:34:45;;;;;;;3.80;2.95;;;3.30;72.00;;;;;;4987153;28;20114;-82
2021/03/07 04:37:11;;;;;;;5.05;3.05;;;3.30;72.00;;;;;;4971185;28;20484;-82
2021/03/07 04:39:37;;;;;;;4.13;2.85;;;3.30;72.00;;;;;;4970836;28;20057;-81
2021/03/07 04:42:04;;;;;;;4.18;3.10;;;3.30;72.00;;;;;;4978545;28;20482;-81
2021/03/07 04:44:31;;;;;;;3.92;2.92;;;3.30;72.10;;;;;;4992183;28;20031;-81
2021/03/07 04:46:56;;;;;;;3.95;2.65;;;3.30;72.00;;;;;;4994051;28;20072;-81
2021/03/07 04:49:22;;;;;;;3.50;2.65;;;3.20;72.00;;;;;;4984391;28;20047;-81
2021/03/07 04:51:48;;;;;;;4.07;2.80;;;3.20;72.00;;;;;;4963308;28;20041;-82
2021/03/07 04:54:14;;;;;;;4.32;3.15;;;3.20;72.00;;;;;;4978489;28;20411;-82
2021/03/07 04:56:40;;;;;;;3.65;2.97;;;3.20;72.60;;;;;;4994523;28;20039;-81
2021/03/07 04:59:05;;;;;;;3.83;2.85;;;3.20;72.00;;;;;;4993993;28;20379;-81
2021/03/07 05:01:31;;;;;;;3.72;2.85;;;3.20;72.00;;;;;;4978257;28;20471;-81
2021/03/07 05:03:57;;;;;;;4.78;3.17;;;3.10;71.90;;;;;;4978342;28;20034;-82
2021/03/07 05:06:26;;;;;;;4.07;3.17;;;3.10;72.00;;;;;;4949792;28;20546;-82
2021/03/07 05:08:52;;;;;;;4.30;3.17;;;3.20;72.00;;;;;;4958340;28;20030;-81
2021/03/07 05:11:22;;;;;;;4.32;3.30;;;3.10;71.90;;;;;;4977001;28;20038;-81
2021/03/07 05:13:51;;;;;;;4.78;3.42;;;3.10;72.00;;;;;;4967475;28;20050;-81
2021/03/07 05:16:17;;;;;;;4.80;3.40;;;3.10;72.00;;;;;;4986348;28;20035;-81
2021/03/07 05:18:44;;;;;;;4.35;3.42;;;3.10;72.00;;;;;;5004759;28;20073;-81
2021/03/07 05:21:10;;;;;;;4.50;3.35;;;3.00;72.00;;;;;;4964263;28;20062;-81
2021/03/07 05:23:36;;;;;;;4.05;2.97;;;3.00;72.00;;;;;;4994393;28;20471;-82
2021/03/07 05:26:03;;;;;;;4.65;3.30;;;3.00;72.00;;;;;;4974973;28;20105;-82
2021/03/07 05:28:28;;;;;;;4.05;2.97;;;3.00;72.00;;;;;;4993327;28;20517;-82
2021/03/07 05:30:54;;;;;;;5.43;3.10;;;3.00;72.00;;;;;;4977843;28;20038;-82
2021/03/07 05:33:20;;;;;;;4.35;3.10;;;3.00;72.00;;;;;;4977243;28;20034;-82
2021/03/07 05:35:47;;;;;;;4.00;3.17;;;3.00;72.00;;;;;;4961775;28;20034;-82
2021/03/07 05:38:13;;;;;;;4.25;3.00;;;3.00;72.00;;;;;;4961709;28;20030;-81
2021/03/07 05:40:40;;;;;;;5.10;3.42;;;3.00;72.00;;;;;;4993811;28;20150;-82
2021/03/07 05:43:06;;;;;;;4.07;2.85;;;2.90;72.00;;;;;;4997288;28;20022;-82
2021/03/07 05:45:32;;;;;;;3.28;2.88;;;2.90;72.00;;;;;;4961129;28;20646;-81
2021/03/07 05:47:58;;;;;;;3.85;3.00;;;2.90;72.00;;;;;;4958263;28;20049;-81
2021/03/07 05:50:25;;;;;;;4.65;2.95;;;2.90;72.00;;;;;;4961415;28;20026;-81
2021/03/07 05:52:55;;;;;;;6.80;3.35;;;2.90;72.00;;;;;;4977243;28;20057;-81
2021/03/07 05:55:22;;;;;;;4.07;3.17;;;2.90;72.10;;;;;;4994235;28;20030;-81
2021/03/07 05:57:48;;;;;;;4.93;3.45;;;2.90;72.00;;;;;;4975393;28;20089;-81
2021/03/07 06:00:16;;;;;;;3.65;2.70;;;2.90;72.10;;;;;;4980591;28;20058;-82
2021/03/07 06:02:42;;;;;;;4.28;2.90;;;2.90;72.10;;;;;;4982186;28;20027;-81
2021/03/07 06:05:10;;;;;;;4.13;2.97;;;2.90;72.10;;;;;;4993205;28;20101;-81
2021/03/07 06:07:36;;;;;;;3.95;2.78;;;2.80;72.00;;;;;;4961036;28;20045;-82
2021/03/07 06:10:12;;;;;;;3.58;2.70;;;2.90;72.10;;;;;;4976949;28;20034;-81
2021/03/07 06:12:39;;;;;;;4.13;2.63;;;2.90;72.10;;;;;;4992572;28;20469;-82
2021/03/07 06:15:06;;;;;;;3.35;2.53;;;2.90;72.00;;;;;;4993275;28;20545;-81
2021/03/07 06:17:40;;;;;;;4.93;3.45;;;2.90;72.10;;;;;;4976565;28;20094;-81
2021/03/07 06:20:08;;;;;;;4.00;2.60;;;2.90;72.10;;;;;;4993366;28;20096;-82
2021/03/07 06:22:35;;;;;;;3.67;2.88;;;2.80;72.10;;;;;;4976535;28;20422;-81
2021/03/07 06:25:04;;;;;;;3.95;2.80;;;2.90;72.10;;;;;;4976835;28;20444;-81
2021/03/07 06:27:30;;;;;;;3.85;3.20;;;2.90;72.20;;;;;;4993449;28;20022;-81
2021/03/07 06:30:07;;;;;;;4.18;3.00;;;2.90;72.10;;;;;;4962910;28;20558;-82
2021/03/07 06:32:39;;;;;;;3.60;2.72;;;2.80;72.10;;;;;;4976748;28;20081;-81
2021/03/07 06:35:11;;;;;;;4.43;3.13;;;2.80;72.20;;;;;;4973880;28;20058;-82
2021/03/07 06:37:55;;;;;;;3.95;3.00;;;2.90;72.30;;;;;;4992565;28;20034;-82
2021/03/07 06:40:55;;;;;;;3.40;3.10;;;2.90;72.30;;;;;;4989457;28;20073;-82
2021/03/07 06:43:23;;;;;;;4.25;2.58;;;2.80;72.20;;;;;;4985931;28;20034;-82
2021/03/07 06:45:48;;;;;;;4.80;3.28;;;2.80;72.20;;;;;;4992277;28;20076;-82
2021/03/07 06:48:15;;;;;;;3.83;2.85;;;2.90;72.30;;;;;;4980874;28;20479;-82
2021/03/07 06:50:58;;;;;;;3.92;3.03;;;2.80;72.30;;;;;;4973251;28;20122;-82
2021/03/07 06:53:38;;;;;;;4.72;2.90;;;2.80;72.40;;;;;;4977288;28;20361;-82
2021/03/07 06:56:05;;;;;;;4.70;3.28;;;2.90;72.50;;;;;;4983104;28;20104;-82
2021/03/07 06:58:31;;;;;;;3.88;3.10;;;2.80;72.40;;;;;;4960558;28;20527;-82
2021/03/07 07:00:58;;;;;;;4.20;3.05;;;2.80;72.40;;;;;;4976208;28;20121;-82
2021/03/07 07:03:24;;;;;;;4.55;3.30;;;2.90;72.50;;;;;;4992651;28;20026;-81
2021/03/07 07:05:52;;;;;;;4.40;3.05;;;2.90;72.50;;;;;;4976549;28;20081;-82
2021/03/07 07:08:38;;;;;;;4.20;3.10;;;2.90;72.50;;;;;;4950097;28;20035;-82
2021/03/07 07:11:06;;;;;;;3.65;2.85;;;2.90;72.60;;;;;;4986085;28;20105;-82
2021/03/07 07:13:41;;;;;;;4.13;3.00;;;2.90;72.50;;;;;;4976088;28;20053;-82
2021/03/07 07:16:10;;;;;;;3.85;2.60;;;2.90;72.60;;;;;;4969376;28;20026;-82
2021/03/07 07:18:38;;;;;;;4.90;3.38;;;2.90;72.60;;;;;;4988645;28;20073;-82
2021/03/07 07:21:07;;;;;;;3.83;2.75;;;2.90;72.60;;;;;;4975882;28;20124;-81
2021/03/07 07:23:34;;;;;;;3.88;2.90;;;3.00;72.70;;;;;;4975730;28;20114;-81
2021/03/07 07:26:00;;;;;;;3.75;3.00;;;3.00;72.70;;;;;;4976153;28;20038;-82
2021/03/07 07:28:27;;;;;;;3.95;3.00;;;3.00;72.70;;;;;;4975346;28;20053;-80
2021/03/07 07:30:59;;;;;;;3.95;2.70;;;3.00;72.70;;;;;;4972211;28;20089;-84
2021/03/07 07:33:43;;;;;;;4.10;3.17;;;3.00;72.80;;;;;;4974737;28;20113;-85
2021/03/07 07:36:17;;;;;;;3.28;2.85;;;3.00;72.80;;;;;;4972144;28;20113;-80
2021/03/07 07:38:44;;;;;;;4.20;3.00;;;3.00;72.80;;;;;;4963221;28;20026;-80
2021/03/07 07:41:31;;;;;;;3.40;2.60;;;3.00;72.80;;;;;;4968363;28;20038;-80
2021/03/07 07:43:57;;;;;;;4.13;2.80;;;3.00;72.90;;;;;;4974908;28;20034;-81
2021/03/07 07:46:23;;;;;;;3.13;2.58;;;3.10;72.90;;;;;;4991591;28;20118;-81
2021/03/07 07:48:49;;;;;;;3.28;2.72;;;3.10;72.90;;;;;;4971234;28;20130;-80
2021/03/07 07:51:32;;;;;;;4.40;2.85;;;3.10;72.90;;;;;;4972270;28;20074;-80
2021/03/07 07:53:59;;;;;;;4.90;3.00;;;3.10;73.10;;;;;;4987534;28;20089;-80
2021/03/07 07:56:44;;;;;;;3.40;2.80;;;3.10;73.00;;;;;;4991356;28;20029;-80
2021/03/07 07:59:11;;;;;;;4.50;3.30;;;3.10;73.10;;;;;;4985192;28;20031;-80
2021/03/07 08:01:56;;;;;;;3.65;2.70;;;3.10;73.00;;;;;;4987039;28;20380;-80
2021/03/07 08:04:28;;;;;;;3.35;2.95;;;3.20;73.20;;;;;;4991315;28;20022;-80
2021/03/07 08:06:59;;;;;;;4.07;2.55;;;3.20;73.10;;;;;;4992153;28;20033;-80
2021/03/07 08:09:36;;;;;;;3.20;2.58;;;3.20;73.10;;;;;;4979799;28;20031;-81
2021/03/07 08:12:45;;;;;;;4.28;2.88;;;3.20;73.20;;;;;;4992192;28;20042;-80
2021/03/07 08:15:26;;;;;;;3.25;2.70;;;3.30;73.30;;;;;;4981328;28;20039;-80
2021/03/07 08:17:58;;;;;;;3.92;2.70;;;3.30;73.20;;;;;;4986588;28;20027;-81
2021/03/07 08:20:43;;;;;;;3.92;2.75;;;3.30;73.20;;;;;;4992661;28;20030;-82
2021/03/07 08:23:12;;;;;;;3.78;2.65;;;3.30;73.40;;;;;;4992080;28;20096;-77
2021/03/07 08:25:50;;;;;;;3.42;2.47;;;3.40;73.40;;;;;;4992829;28;20030;-80
2021/03/07 08:28:28;;;;;;;3.28;2.60;;;3.40;73.40;;;;;;4993777;28;20069;-81
2021/03/07 08:31:09;;;;;;;3.20;2.50;;;3.40;73.50;;;;;;4992632;28;20035;-82
2021/03/07 08:33:37;;;;;;;3.10;2.70;;;3.50;73.60;;;;;;4989350;28;20023;-80
2021/03/07 08:36:12;;;;;;;3.83;2.85;;;3.50;73.50;;;;;;4994567;28;20037;-81
2021/03/07 08:38:58;;;;;;;;;;;3.50;73.60;;;;;;4993000;28;20027;-82
2021/03/07 08:41:32;;;;;;;3.72;2.65;;;3.50;73.50;;;;;;4976507;28;19957;-81
2021/03/07 08:43:59;;;;;;;2.85;2.47;;;3.50;73.40;;;;;;4992497;28;20027;-81
2021/03/07 08:46:44;;;;;;;3.17;2.70;;;3.60;73.50;;;;;;4994428;28;20154;-78
2021/03/07 08:49:31;;;;;;;3.78;2.83;;;3.60;73.60;;;;;;4994669;28;20542;-79
2021/03/07 08:51:59;;;;;;;3.05;2.63;;;3.70;73.70;;;;;;4995856;28;20026;-80
2021/03/07 08:54:29;;;;;;;2.90;2.22;;;3.70;73.60;;;;;;4977301;28;20027;-80
2021/03/07 08:56:55;;;;;;;3.63;2.63;;;3.80;73.80;;;;;;4993802;28;20034;-79
2021/03/07 08:59:27;;;;;;;3.80;3.00;;;3.70;73.70;;;;;;4975036;28;20035;-80
2021/03/07 09:01:54;;;;;;;3.53;2.70;;;3.80;73.80;;;;;;4989892;28;20022;-81
2021/03/07 09:04:20;;;;;;;3.22;2.53;;;3.80;73.80;;;;;;4995272;28;20018;-84
2021/03/07 09:06:47;;;;;;;5.13;2.78;;;3.90;73.80;;;;;;4962568;28;20437;-82
2021/03/07 09:09:18;;;;;;;4.70;2.85;;;3.90;74.50;;;;;;4958934;28;20123;-82
2021/03/07 09:11:55;;;;;;;5.28;3.15;;;3.90;73.90;;;;;;4989776;28;20029;-82
2021/03/07 09:14:38;;;;;;;4.80;2.80;;;4.00;73.90;;;;;;4994776;28;20066;-82
2021/03/07 09:17:06;;;;;;;5.05;3.08;;;4.00;74.00;;;;;;4994491;28;20027;-81
2021/03/07 09:19:40;;;;;;;4.07;3.10;;;4.10;73.80;;;;;;4957850;28;20066;-80
2021/03/07 09:22:26;;;;;;;2.95;2.55;;;4.10;73.90;;;;;;4978211;28;20045;-81
2021/03/07 09:25:04;;;;;;;3.25;2.65;;;4.10;73.90;;;;;;4989398;28;20031;-82
2021/03/07 09:27:43;;;;;;;4.13;2.92;;;4.20;73.80;;;;;;4986934;28;20054;-82
2021/03/07 09:30:11;;;;;;;3.60;2.85;;;4.20;73.80;;;;;;4979780;28;20053;-82
2021/03/07 09:32:48;;;;;;;3.25;2.53;;;4.20;73.80;;;;;;4979861;28;20459;-82
2021/03/07 09:35:22;;;;;;;2.72;2.50;;;4.30;74.00;;;;;;4977449;28;20054;-81
2021/03/07 09:38:04;;;;;;;4.03;3.00;;;4.30;74.00;;;;;;4979081;28;20031;-82
2021/03/07 09:40:39;;;;;;;3.45;2.78;;;4.30;74.00;;;;;;4994867;28;20038;-81
2021/03/07 09:43:13;;;;;;;3.53;2.70;;;4.40;74.00;;;;;;4977742;28;20030;-82
2021/03/07 09:45:45;;;;;;;3.75;2.80;;;4.50;74.00;;;;;;4993113;28;20378;-81
2021/03/07 09:48:11;;;;;;;3.60;2.88;;;4.50;73.90;;;;;;4994092;28;20109;-83
2021/03/07 09:50:40;;;;;;;3.85;2.60;;;4.50;73.90;;;;;;4978745;28;20030;-82
2021/03/07 09:53:06;;;;;;;3.38;2.50;;;4.60;73.90;;;;;;4974670;28;20538;-80
2021/03/07 09:55:34;;;;;;;2.85;2.50;;;4.60;73.80;;;;;;4960838;28;20022;-82
2021/03/07 09:58:02;;;;;;;3.13;2.53;;;4.70;73.80;;;;;;4994005;28;20026;-82
2021/03/07 10:00:30;;;;;;;2.83;2.40;;;4.70;73.80;;;;;;4975883;28;20039;-80
2021/03/07 10:02:56;;;;;;;2.55;2.28;;;4.80;73.70;;;;;;4977312;28;20129;-83
2021/03/07 10:05:22;;;;;;;3.08;2.28;;;4.80;73.60;;;;;;4977441;28;20057;-83
2021/03/07 10:07:47;;;;;;;2.97;2.35;;;4.90;73.60;;;;;;4977977;28;20031;-82
2021/03/07 10:10:24;;;;;;;3.22;2.42;;;4.90;73.50;;;;;;4964148;28;20041;-82
2021/03/07 10:12:55;;;;;;;2.47;2.28;;;5.00;73.60;;;;;;4994720;28;20108;-80
2021/03/07 10:15:26;;;;;;;2.15;1.95;;;5.00;73.50;;;;;;4999263;28;20081;-81
2021/03/07 10:17:52;;;;;;;2.55;2.15;;;5.10;73.50;;;;;;4992709;28;20028;-79
2021/03/07 10:20:18;;;;;;;2.30;1.90;;;5.10;73.40;;;;;;4993434;28;20297;-79
2021/03/07 10:22:47;;;;;;;2.47;1.85;;;5.20;73.40;;;;;;4977132;28;20030;-82
2021/03/07 10:25:33;;;;;;;2.15;1.92;;;5.30;73.50;;;;;;4973297;28;20031;-78
2021/03/07 10:28:08;;;;;;;2.53;2.03;;;5.30;73.50;;;;;;4993020;28;20063;-87
2021/03/07 10:30:37;;;;;;;2.65;1.90;;;5.40;73.40;;;;;;4990914;28;20442;-86
2021/03/07 10:33:18;;;;;;;2.50;2.10;;;5.40;73.40;;;;;;4974525;28;20168;-89
2021/03/07 10:36:00;;;;;;;3.05;2.25;;;5.50;73.50;;;;;;4993468;28;20027;-88
2021/03/07 10:38:27;;;;;;;2.35;2.00;;;5.60;73.50;;;;;;4975226;28;20045;-86
2021/03/07 10:40:52;;;;;;;2.10;1.80;;;5.60;73.40;;;;;;4976643;28;20510;-82
2021/03/07 10:43:18;;;;;;;3.30;2.20;;;5.70;73.40;;;;;;4974290;28;20126;-82
2021/03/07 10:45:44;;;;;;;2.22;2.03;;;5.70;73.40;;;;;;4991095;28;20463;-82
2021/03/07 10:48:12;;;;;;;2.47;1.98;;;5.80;73.30;;;;;;4992642;28;20037;-83
2021/03/07 10:50:48;;;;;;;3.65;2.30;;;5.90;73.40;;;;;;4977404;28;20463;-82
2021/03/07 10:53:17;;;;;;;2.00;1.80;;;5.90;73.40;;;;;;4992763;28;20030;-83
2021/03/07 10:55:50;;;;;;;1.98;1.85;;;6.00;73.40;;;;;;4992887;28;20450;-82
2021/03/07 10:58:16;;;;;;;2.17;1.90;;;6.10;73.50;;;;;;4993490;28;20030;-83
2021/03/07 11:00:42;;;;;;;1.70;1.60;;;6.20;73.40;;;;;;4976890;28;20042;-82
2021/03/07 11:03:08;;;;;;;2.15;1.90;;;6.30;73.50;;;;;;4993800;28;20117;-82
2021/03/07 11:05:33;;;;;;;2.55;2.35;;;6.30;73.40;;;;;;4991302;28;20032;-81
2021/03/07 11:07:59;;;;;;;2.15;1.90;;;6.40;73.40;;;;;;4970160;28;20050;-82
2021/03/07 11:10:25;;;;;;;2.10;1.90;;;6.50;73.40;;;;;;4972510;28;20030;-82
2021/03/07 11:12:51;;;;;;;2.30;2.00;;;6.50;73.40;;;;;;4992304;28;20061;-82
2021/03/07 11:15:18;;;;;;;1.85;1.75;;;6.60;73.40;;;;;;4975659;28;20241;-82
2021/03/07 11:17:44;;;;;;;2.10;1.75;;;6.70;73.40;;;;;;4992570;28;20031;-82
2021/03/07 11:20:11;;;;;;;2.58;2.10;;;6.80;73.40;;;;;;4975880;28;20262;-83
2021/03/07 11:22:37;;;;;;;2.35;1.88;;;6.90;73.40;;;;;;4991950;28;20030;-83
2021/03/07 11:25:05;;;;;;;2.00;1.80;;;7.00;73.40;;;;;;4991929;28;20418;-82
2021/03/07 11:27:31;;;;;;;2.20;1.80;;;7.00;73.40;;;;;;4976123;28;20471;-81
2021/03/07 11:29:57;;;;;;;2.22;1.75;;;7.10;73.40;;;;;;4987761;28;20085;-82
2021/03/07 11:32:22;;;;;;;1.95;1.75;;;7.20;73.50;;;;;;4975501;28;20027;-82
2021/03/07 11:34:48;;;;;;;2.28;1.80;;;7.30;73.60;;;;;;4974846;28;20058;-81
2021/03/07 11:37:14;;;;;;;1.92;1.73;;;7.30;73.50;;;;;;4975377;28;20030;-82
2021/03/07 11:39:40;;;;;;;1.92;1.67;;;7.40;73.60;;;;;;4992126;28;20031;-81
2021/03/07 11:42:06;;;;;;;2.28;1.85;;;7.50;73.70;;;;;;4975459;28;20037;-81
2021/03/07 11:44:33;;;;;;;2.70;1.80;;;7.50;73.80;;;;;;4991569;28;20101;-82
2021/03/07 11:46:58;;;;;;;2.35;1.80;;;7.60;73.90;;;;;;4978609;28;20035;-81
2021/03/07 11:49:24;;;;;;;1.50;1.40;;;7.70;73.90;;;;;;4975854;28;20065;-83
2021/03/07 11:51:50;;;;;;;1.65;1.55;;;7.80;73.90;;;;;;4957397;28;20034;-82
2021/03/07 11:54:16;;;;;;;1.88;1.70;;;7.80;73.80;;;;;;5006206;28;20038;-83
2021/03/07 11:56:41;;;;;;;2.05;1.85;;;7.90;73.90;;;;;;4974664;28;20516;-82
2021/03/07 11:59:07;;;;;;;1.60;1.50;;;8.00;73.90;;;;;;4978542;28;20109;-83
2021/03/07 12:01:33;;;;;;;1.73;1.63;;;8.00;73.80;;;;;;4976494;28;20134;-83
2021/03/07 12:03:59;;;;;;;1.73;1.63;;;8.00;73.70;;;;;;4994530;28;20121;-83
2021/03/07 12:06:25;;;;;;;3.13;1.73;;;8.10;73.70;;;;;;4979116;28;20077;-82
2021/03/07 12:08:51;;;;;;;1.90;1.65;;;8.20;73.80;;;;;;4979312;28;20061;-82
2021/03/07 12:11:18;;;;;;;2.45;1.90;;;8.20;73.80;;;;;;4996070;28;20031;-82
2021/03/07 12:13:44;;;;;;;2.13;1.92;;;8.20;73.80;;;;;;4979118;28;20046;-83
2021/03/07 12:16:10;;;;;;;1.98;1.75;;;8.30;73.70;;;;;;4996559;28;20395;-81
2021/03/07 12:18:37;;;;;;;1.98;1.85;;;8.30;73.70;;;;;;4976550;28;20085;-82
2021/03/07 12:21:07;;;;;;;2.17;1.98;;;8.40;73.70;;;;;;4978669;28;20513;-82
2021/03/07 12:23:33;;;;;;;2.60;1.92;;;8.40;73.60;;;;;;4979028;28;20027;-81
2021/03/07 12:25:59;;;;;;;2.08;1.80;;;8.50;73.60;;;;;;4982541;28;20360;-81
2021/03/07 12:28:24;;;;;;;1.70;1.60;;;8.50;73.60;;;;;;4946512;28;20029;-81
2021/03/07 12:30:50;;;;;;;2.25;2.05;;;8.60;73.60;;;;;;4995365;28;20045;-82
2021/03/07 12:33:16;;;;;;;2.42;1.90;;;8.60;73.50;;;;;;4979102;28;20047;-81
2021/03/07 12:35:42;;;;;;;2.13;1.92;;;8.60;73.40;;;;;;4979223;28;20061;-81
2021/03/07 12:38:08;;;;;;;2.15;1.95;;;8.60;73.40;;;;;;4980602;28;20082;-81
2021/03/07 12:40:34;;;;;;;2.05;1.80;;;8.70;73.50;;;;;;4971452;28;20026;-82
2021/03/07 12:43:02;;;;;;;2.10;1.90;;;8.80;73.50;;;;;;4995121;28;20065;-87
2021/03/07 12:45:29;;;;;;;1.80;1.70;;;8.80;73.50;;;;;;4977920;28;20031;-82
2021/03/07 12:47:55;;;;;;;3.42;1.73;;;8.80;73.40;;;;;;4996524;28;20076;-85
2021/03/07 12:50:20;;;;;;;2.58;1.90;;;8.90;73.50;;;;;;4971587;28;20039;-82
2021/03/07 12:52:46;;;;;;;2.55;1.90;;;8.90;73.40;;;;;;4994873;28;20065;-82
2021/03/07 12:55:12;;;;;;;2.08;1.88;;;9.00;73.40;;;;;;4977767;28;20130;-81
2021/03/07 12:57:38;;;;;;;2.40;2.00;;;9.00;73.40;;;;;;4978879;28;20026;-85
2021/03/07 13:00:05;;;;;;;2.63;2.10;;;9.00;73.30;;;;;;4979158;28;20042;-83
2021/03/07 13:02:30;;;;;;;3.40;2.10;;;9.00;73.00;;;;;;4994296;28;20030;-82
2021/03/07 13:04:56;;;;;;;2.28;1.85;;;9.10;72.80;;;;;;4981140;28;20041;-85
2021/03/07 13:07:22;;;;;;;2.83;2.10;;;9.10;72.60;;;;;;4970668;28;20053;-87